Time;durP1;ratioP1;P1;durP2;ratioP2;P2;SDS_P1;SDS_P2;PMS_P1;PMS_P2;Temp;Humidity;BMP_temperature;BMP_pressure;BME280_temperature;BME280_humidity;BME280_pressure;Samples;Min_cycle;Max_cycle;Signal;HPM_P1;HPM_P2
2022/05/31 00:01:03;;;;;;;1.00;0.60;;;11.80;99.90;;;;;;4957964;29;20193;-71
2022/05/31 00:03:28;;;;;;;0.70;0.50;;;11.80;99.90;;;;;;4972368;28;20202;-71
2022/05/31 00:05:54;;;;;;;0.70;0.50;;;11.80;99.90;;;;;;4957498;29;20251;-71
2022/05/31 00:08:19;;;;;;;1.00;0.70;;;11.80;99.90;;;;;;4957499;29;20236;-70
2022/05/31 00:10:45;;;;;;;0.90;0.70;;;11.80;99.90;;;;;;4972188;28;20690;-71
2022/05/31 00:13:11;;;;;;;1.73;0.70;;;11.80;99.90;;;;;;4972029;28;20648;-71
2022/05/31 00:15:36;;;;;;;1.20;1.00;;;11.90;99.90;;;;;;4957392;28;20174;-71
2022/05/31 00:18:02;;;;;;;0.73;0.50;;;11.90;99.90;;;;;;4955876;29;20201;-71
2022/05/31 00:20:28;;;;;;;0.80;0.73;;;11.90;99.90;;;;;;4957831;29;20186;-71
2022/05/31 00:22:54;;;;;;;0.80;0.80;;;11.90;99.90;;;;;;4956627;29;20410;-70
2022/05/31 00:25:20;;;;;;;0.77;0.63;;;11.90;99.90;;;;;;4957943;29;20210;-70
2022/05/31 00:27:45;;;;;;;1.10;0.80;;;11.90;99.90;;;;;;4957385;29;20661;-71
2022/05/31 00:30:13;;;;;;;0.83;0.67;;;11.90;99.90;;;;;;4956168;29;20190;-71
2022/05/31 00:32:42;;;;;;;1.90;1.47;;;11.80;99.90;;;;;;4956721;28;20186;-71
2022/05/31 00:35:13;;;;;;;1.37;0.83;;;11.90;99.90;;;;;;4955965;29;20983;-70
2022/05/31 00:37:39;;;;;;;1.23;0.90;;;11.90;99.90;;;;;;4956978;29;20408;-70
2022/05/31 00:40:06;;;;;;;1.23;1.00;;;11.90;99.90;;;;;;4955795;29;20421;-70
2022/05/31 00:42:53;;;;;;;0.83;0.70;;;11.90;99.90;;;;;;4956832;29;20218;-71
2022/05/31 00:45:19;;;;;;;1.00;0.90;;;11.90;99.90;;;;;;4957017;29;20405;-70
2022/05/31 00:47:46;;;;;;;0.90;0.73;;;11.90;99.90;;;;;;4971581;28;20506;-71
2022/05/31 00:50:23;;;;;;;0.80;0.63;;;12.00;99.90;;;;;;4956979;29;20541;-71
2022/05/31 00:52:54;;;;;;;1.27;1.17;;;12.00;99.90;;;;;;4956989;28;20425;-71
2022/05/31 00:55:25;;;;;;;1.10;1.00;;;11.90;99.90;;;;;;4957077;29;20417;-71
2022/05/31 00:58:03;;;;;;;1.30;0.80;;;12.00;99.90;;;;;;4956992;28;20975;-71
2022/05/31 01:00:29;;;;;;;0.80;0.60;;;11.90;99.90;;;;;;4956902;28;20422;-70
2022/05/31 01:02:56;;;;;;;1.17;0.70;;;12.00;99.90;;;;;;4957251;29;20511;-70
2022/05/31 01:05:24;;;;;;;0.80;0.70;;;12.00;99.90;;;;;;4955546;28;20417;-71
2022/05/31 01:07:49;;;;;;;0.90;0.70;;;12.00;99.90;;;;;;4955158;28;20436;-71
2022/05/31 01:10:15;;;;;;;1.30;0.83;;;12.00;99.90;;;;;;4956759;29;20450;-70
2022/05/31 01:12:43;;;;;;;1.23;0.70;;;12.00;99.90;;;;;;4955016;29;20198;-70
2022/05/31 01:15:14;;;;;;;0.80;0.50;;;12.00;99.90;;;;;;4956061;29;20548;-70
2022/05/31 01:17:42;;;;;;;0.80;0.60;;;12.00;99.90;;;;;;4954507;28;20434;-71
2022/05/31 01:20:12;;;;;;;1.43;1.23;;;12.00;99.90;;;;;;4956041;28;20430;-71
2022/05/31 01:22:54;;;;;;;0.80;0.60;;;12.00;99.90;;;;;;4956033;29;20998;-71
2022/05/31 01:25:31;;;;;;;0.70;0.50;;;12.00;99.90;;;;;;4955902;29;20421;-70
2022/05/31 01:28:25;;;;;;;1.47;1.37;;;12.00;99.90;;;;;;4955949;29;20492;-71
2022/05/31 01:31:10;;;;;;;1.37;0.83;;;12.00;99.90;;;;;;4955886;29;20430;-70
2022/05/31 01:33:45;;;;;;;1.00;0.70;;;12.00;99.90;;;;;;4955740;29;20508;-70
2022/05/31 01:36:22;;;;;;;0.70;0.50;;;12.00;99.90;;;;;;4955436;28;20412;-70
2022/05/31 01:38:51;;;;;;;1.10;0.93;;;12.00;99.90;;;;;;4970814;28;20460;-70
2022/05/31 01:41:36;;;;;;;0.80;0.60;;;12.00;99.90;;;;;;4954433;29;20442;-70
2022/05/31 01:44:05;;;;;;;0.90;0.67;;;12.00;99.90;;;;;;4969894;28;20422;-70
2022/05/31 01:46:34;;;;;;;0.97;0.70;;;12.00;99.90;;;;;;4954205;28;20513;-70
2022/05/31 01:49:01;;;;;;;1.97;1.10;;;11.90;99.90;;;;;;4954302;29;20505;-70
2022/05/31 01:51:27;;;;;;;0.80;0.60;;;12.00;99.90;;;;;;4955581;29;20947;-69
2022/05/31 01:53:54;;;;;;;1.40;1.00;;;12.00;99.90;;;;;;4969740;28;20465;-69
2022/05/31 01:56:21;;;;;;;1.73;1.10;;;12.00;99.90;;;;;;4969619;28;20171;-70
2022/05/31 01:58:49;;;;;;;1.20;1.10;;;12.00;99.90;;;;;;4955375;28;20410;-70
2022/05/31 02:01:16;;;;;;;0.80;0.70;;;12.00;99.90;;;;;;4954249;28;20516;-70
2022/05/31 02:03:44;;;;;;;1.33;0.93;;;11.90;99.90;;;;;;4955601;29;20405;-70
2022/05/31 02:06:35;;;;;;;1.40;0.97;;;11.90;99.90;;;;;;4954762;29;20413;-70
2022/05/31 02:09:03;;;;;;;0.80;0.67;;;11.90;99.90;;;;;;4955113;29;20402;-69
2022/05/31 02:11:29;;;;;;;1.40;0.90;;;11.90;99.90;;;;;;4953580;29;20430;-69
2022/05/31 02:13:55;;;;;;;0.90;0.70;;;11.90;99.90;;;;;;4953501;29;20449;-70
2022/05/31 02:16:20;;;;;;;0.70;0.60;;;11.90;99.90;;;;;;4953330;29;20193;-70
2022/05/31 02:21:35;;;;;;;0.80;0.60;;;11.80;99.90;;;;;;4954910;29;20683;-70
2022/05/31 02:24:03;;;;;;;0.87;0.67;;;11.70;99.90;;;;;;4954705;28;20406;-73
2022/05/31 02:26:29;;;;;;;2.30;1.00;;;11.70;99.90;;;;;;4954402;29;20467;-70
2022/05/31 02:28:54;;;;;;;1.13;1.03;;;11.60;99.90;;;;;;4969350;28;20931;-70
2022/05/31 02:31:20;;;;;;;2.97;1.10;;;11.50;99.90;;;;;;4953158;29;20194;-70
2022/05/31 02:33:45;;;;;;;0.80;0.70;;;11.50;99.90;;;;;;4969401;28;20198;-69
2022/05/31 02:36:11;;;;;;;1.20;0.70;;;11.50;99.90;;;;;;4954234;29;20252;-70
2022/05/31 02:38:36;;;;;;;0.80;0.60;;;11.50;99.90;;;;;;4969068;28;20201;-70
2022/05/31 02:41:02;;;;;;;1.00;0.80;;;11.50;99.90;;;;;;4969232;28;20281;-73
2022/05/31 02:43:28;;;;;;;0.80;0.60;;;11.40;99.90;;;;;;4969021;28;20174;-70
2022/05/31 02:45:53;;;;;;;1.63;0.90;;;11.40;99.90;;;;;;4952819;29;20417;-69
2022/05/31 02:48:20;;;;;;;0.80;0.60;;;11.40;99.90;;;;;;4954034;29;20178;-70
2022/05/31 02:50:45;;;;;;;0.70;0.50;;;11.40;99.90;;;;;;4954167;28;20210;-70
2022/05/31 02:53:11;;;;;;;1.10;0.77;;;11.40;99.90;;;;;;4952771;28;21158;-70
2022/05/31 02:55:36;;;;;;;1.07;0.97;;;11.30;99.90;;;;;;4953941;28;20198;-70
2022/05/31 02:58:02;;;;;;;1.67;1.00;;;11.30;99.90;;;;;;4953913;29;20202;-70
2022/05/31 03:00:28;;;;;;;0.70;0.57;;;11.30;99.90;;;;;;4968776;28;20293;-70
2022/05/31 03:02:53;;;;;;;0.97;0.87;;;11.30;99.90;;;;;;4954298;28;20170;-71
2022/05/31 03:05:19;;;;;;;1.47;1.20;;;11.30;99.90;;;;;;4968986;28;20166;-70
2022/05/31 03:07:44;;;;;;;1.30;1.20;;;11.30;99.90;;;;;;4968754;28;20174;-72
2022/05/31 03:10:10;;;;;;;0.80;0.70;;;11.20;99.90;;;;;;4952644;29;20194;-72
2022/05/31 03:12:36;;;;;;;1.83;0.70;;;11.20;99.90;;;;;;4954069;28;20166;-71
2022/05/31 03:15:07;;;;;;;2.10;1.53;;;11.20;99.90;;;;;;4952649;28;20202;-70
2022/05/31 03:17:40;;;;;;;0.77;0.67;;;11.20;99.90;;;;;;4952634;28;20190;-71
2022/05/31 03:20:06;;;;;;;0.90;0.70;;;11.20;99.90;;;;;;4968785;28;20469;-71
2022/05/31 03:22:41;;;;;;;1.40;1.30;;;11.20;99.90;;;;;;4953029;28;20903;-71
2022/05/31 03:25:18;;;;;;;0.90;0.70;;;11.30;99.90;;;;;;4952836;28;20178;-70
2022/05/31 03:27:44;;;;;;;0.80;0.50;;;11.30;99.90;;;;;;4953813;28;20798;-70
2022/05/31 03:30:11;;;;;;;0.90;0.60;;;11.30;99.90;;;;;;4953915;28;20433;-71
2022/05/31 03:32:36;;;;;;;1.40;0.90;;;11.30;99.90;;;;;;4952871;29;20504;-71
2022/05/31 03:35:03;;;;;;;1.00;0.90;;;11.30;99.90;;;;;;4968669;28;20457;-71
2022/05/31 03:37:29;;;;;;;1.67;1.43;;;11.30;99.90;;;;;;4968503;28;20779;-70
2022/05/31 03:39:55;;;;;;;0.80;0.60;;;11.40;99.90;;;;;;4953735;29;20428;-71
2022/05/31 03:42:20;;;;;;;0.97;0.70;;;11.40;99.90;;;;;;4952627;29;20266;-71
2022/05/31 03:44:46;;;;;;;1.53;1.03;;;11.40;99.90;;;;;;4968560;28;20175;-70
2022/05/31 03:47:11;;;;;;;1.37;1.13;;;11.50;99.90;;;;;;4953586;29;20225;-70
2022/05/31 03:49:37;;;;;;;0.80;0.60;;;11.50;99.90;;;;;;4953712;29;20574;-71
2022/05/31 03:52:03;;;;;;;1.37;1.00;;;11.50;99.90;;;;;;4968431;28;20185;-71
2022/05/31 03:54:30;;;;;;;0.80;0.70;;;11.50;99.90;;;;;;4953433;29;20229;-70
2022/05/31 03:56:56;;;;;;;0.83;0.70;;;11.60;99.90;;;;;;4953621;28;20481;-71
2022/05/31 03:59:21;;;;;;;1.30;1.17;;;11.60;99.90;;;;;;4952291;29;20414;-70
2022/05/31 04:01:47;;;;;;;1.13;0.80;;;11.60;99.90;;;;;;4968414;28;20171;-70
2022/05/31 04:04:12;;;;;;;0.80;0.60;;;11.60;99.90;;;;;;4952176;29;20202;-70
2022/05/31 04:06:38;;;;;;;2.40;1.23;;;11.70;99.90;;;;;;4954870;28;20253;-70
2022/05/31 04:09:04;;;;;;;0.70;0.50;;;11.70;99.90;;;;;;4956919;29;20225;-70
2022/05/31 04:11:30;;;;;;;0.90;0.70;;;11.70;99.90;;;;;;4956881;29;20213;-70
2022/05/31 04:13:56;;;;;;;0.90;0.60;;;11.80;99.90;;;;;;4956830;28;20476;-70
2022/05/31 04:16:21;;;;;;;2.80;0.77;;;11.80;99.90;;;;;;4954948;28;20414;-70
2022/05/31 04:18:47;;;;;;;0.70;0.50;;;11.90;99.90;;;;;;4956453;28;20166;-70
2022/05/31 04:21:18;;;;;;;0.70;0.50;;;11.90;99.90;;;;;;4955493;29;20253;-70
2022/05/31 04:24:02;;;;;;;0.80;0.60;;;11.90;99.90;;;;;;4956729;28;20851;-71
2022/05/31 04:26:32;;;;;;;0.70;0.50;;;11.90;99.90;;;;;;4956387;28;20485;-70
2022/05/31 04:28:59;;;;;;;1.40;1.30;;;12.00;99.90;;;;;;4955255;29;20421;-70
2022/05/31 04:31:25;;;;;;;1.87;0.90;;;12.00;99.90;;;;;;4955229;29;20444;-70
2022/05/31 04:33:51;;;;;;;1.00;0.70;;;12.00;99.90;;;;;;4955318;29;20523;-71
2022/05/31 04:36:18;;;;;;;1.17;0.80;;;12.00;99.90;;;;;;4956464;28;20406;-69
2022/05/31 04:38:44;;;;;;;1.03;0.80;;;12.00;99.90;;;;;;4971598;28;20177;-71
2022/05/31 04:41:25;;;;;;;1.33;1.03;;;12.00;99.90;;;;;;4956741;28;20421;-70
2022/05/31 04:43:52;;;;;;;3.83;0.90;;;12.00;99.90;;;;;;4956527;29;20826;-70
2022/05/31 04:46:20;;;;;;;1.17;0.80;;;12.00;99.90;;;;;;4971063;28;20950;-70
2022/05/31 04:48:45;;;;;;;0.80;0.60;;;12.00;99.90;;;;;;4956584;29;20505;-70
2022/05/31 04:51:12;;;;;;;0.80;0.60;;;12.10;99.90;;;;;;4956479;29;20524;-70
2022/05/31 04:53:39;;;;;;;1.10;1.00;;;12.10;99.90;;;;;;4956412;28;20194;-70
2022/05/31 04:56:08;;;;;;;0.70;0.50;;;12.10;99.90;;;;;;4956477;29;20410;-70
2022/05/31 04:58:34;;;;;;;0.80;0.70;;;12.20;99.90;;;;;;4956338;28;20908;-70
2022/05/31 05:01:06;;;;;;;0.70;0.50;;;12.20;99.90;;;;;;4956286;29;20441;-70
2022/05/31 05:03:33;;;;;;;0.70;0.50;;;12.30;99.90;;;;;;4954909;28;20425;-70
2022/05/31 05:06:00;;;;;;;0.90;0.70;;;12.30;99.90;;;;;;4956114;28;20987;-70
2022/05/31 05:08:26;;;;;;;0.70;0.50;;;12.40;99.90;;;;;;4955835;29;20515;-71
2022/05/31 05:10:52;;;;;;;1.57;1.47;;;12.40;99.90;;;;;;4971030;28;20438;-70
2022/05/31 05:13:17;;;;;;;0.80;0.70;;;12.40;99.90;;;;;;4955798;28;20812;-70
2022/05/31 05:15:43;;;;;;;1.20;1.03;;;12.50;99.90;;;;;;4956002;28;20174;-70
2022/05/31 05:18:09;;;;;;;3.00;0.77;;;12.50;99.90;;;;;;4955485;28;20182;-70
2022/05/31 05:20:39;;;;;;;0.80;0.60;;;12.50;99.90;;;;;;4956059;28;20651;-70
2022/05/31 05:23:05;;;;;;;1.10;0.70;;;12.50;99.90;;;;;;4955916;28;20410;-71
2022/05/31 05:25:32;;;;;;;0.90;0.77;;;12.60;99.90;;;;;;4956037;29;20405;-70
2022/05/31 05:27:58;;;;;;;0.80;0.70;;;12.60;99.90;;;;;;4955714;28;20489;-70
2022/05/31 05:30:38;;;;;;;1.40;0.70;;;12.70;99.90;;;;;;4955979;29;20422;-70
2022/05/31 05:33:04;;;;;;;1.00;0.80;;;12.70;99.90;;;;;;4955722;28;20420;-69
2022/05/31 05:35:30;;;;;;;1.03;0.70;;;12.80;99.90;;;;;;4970736;28;20410;-71
2022/05/31 05:37:55;;;;;;;0.80;0.70;;;12.90;99.90;;;;;;4955722;29;20402;-71
2022/05/31 05:40:21;;;;;;;0.80;0.70;;;13.00;99.90;;;;;;4955578;29;20190;-71
2022/05/31 05:42:46;;;;;;;0.90;0.80;;;13.20;99.90;;;;;;4955652;29;20170;-70
2022/05/31 05:45:12;;;;;;;1.00;0.80;;;13.30;99.90;;;;;;4955299;28;20174;-71
2022/05/31 05:47:38;;;;;;;0.80;0.60;;;13.40;99.90;;;;;;4955271;29;20171;-70
2022/05/31 05:50:04;;;;;;;0.80;0.60;;;13.50;99.90;;;;;;4954168;29;20252;-70
2022/05/31 05:52:30;;;;;;;0.70;0.50;;;13.70;99.90;;;;;;4970341;28;20469;-71
2022/05/31 05:54:56;;;;;;;0.80;0.60;;;13.80;99.90;;;;;;4955027;29;20989;-71
2022/05/31 05:57:21;;;;;;;0.80;0.80;;;14.00;99.90;;;;;;4954759;28;20469;-70
2022/05/31 05:59:47;;;;;;;0.70;0.50;;;14.10;99.90;;;;;;4955022;28;20194;-71
2022/05/31 06:02:21;;;;;;;0.80;0.80;;;14.30;99.90;;;;;;4953646;29;20170;-71
2022/05/31 06:04:56;;;;;;;1.97;0.70;;;14.50;99.90;;;;;;4954690;29;20543;-71
2022/05/31 06:07:30;;;;;;;0.80;0.60;;;14.60;99.90;;;;;;4954732;29;20406;-71
2022/05/31 06:10:01;;;;;;;3.33;0.70;;;14.80;99.90;;;;;;4954603;28;20421;-70
2022/05/31 06:12:33;;;;;;;0.80;0.60;;;15.00;99.90;;;;;;4954711;29;20436;-70
2022/05/31 06:15:10;;;;;;;0.80;0.63;;;15.10;99.90;;;;;;4968997;28;20462;-71
2022/05/31 06:17:41;;;;;;;0.80;0.60;;;15.30;99.90;;;;;;4954232;28;20426;-70
2022/05/31 06:20:09;;;;;;;1.67;0.73;;;15.50;99.90;;;;;;4954204;29;21003;-70
2022/05/31 06:22:37;;;;;;;0.90;0.73;;;15.60;99.90;;;;;;4954358;28;20937;-71
2022/05/31 06:25:03;;;;;;;0.80;0.60;;;15.70;99.90;;;;;;4954496;29;20414;-70
2022/05/31 06:27:28;;;;;;;1.27;0.77;;;15.80;99.90;;;;;;4968915;28;20470;-71
2022/05/31 06:29:54;;;;;;;3.73;0.90;;;16.00;99.90;;;;;;4968535;28;20850;-71
2022/05/31 06:32:20;;;;;;;0.80;0.60;;;16.20;99.90;;;;;;4954267;29;20604;-71
2022/05/31 06:34:45;;;;;;;1.00;0.60;;;16.40;99.90;;;;;;4953973;28;20240;-69
2022/05/31 06:37:13;;;;;;;0.80;0.50;;;16.50;99.90;;;;;;4968727;28;20182;-71
2022/05/31 06:39:41;;;;;;;0.80;0.70;;;16.70;99.90;;;;;;4952724;29;20213;-71
2022/05/31 06:42:07;;;;;;;0.80;0.67;;;16.80;99.90;;;;;;4954153;29;20402;-71
2022/05/31 06:44:41;;;;;;;1.63;0.70;;;16.90;99.90;;;;;;4953597;28;20410;-71
2022/05/31 06:47:08;;;;;;;1.00;0.70;;;17.30;99.90;;;;;;4953667;28;20404;-70
2022/05/31 06:49:35;;;;;;;1.13;0.80;;;17.90;99.90;;;;;;4953897;29;20429;-71
2022/05/31 06:57:37;;;;;;;1.43;0.70;;;19.50;99.90;;;;;;4953982;29;20417;-70
2022/05/31 07:00:08;;;;;;;1.00;0.67;;;19.50;99.90;;;;;;4952264;29;20426;-71
2022/05/31 07:02:34;;;;;;;0.90;0.80;;;19.30;99.90;;;;;;4954041;29;20888;-71
2022/05/31 07:04:59;;;;;;;3.50;0.90;;;19.20;99.90;;;;;;4953811;29;20406;-71
2022/05/31 07:07:25;;;;;;;1.27;1.17;;;19.10;99.90;;;;;;4953446;29;20488;-72
2022/05/31 07:09:51;;;;;;;0.80;0.60;;;19.10;99.90;;;;;;4953838;29;20212;-71
2022/05/31 07:12:17;;;;;;;6.83;0.70;;;19.60;99.90;;;;;;4952420;29;20188;-71
2022/05/31 07:14:43;;;;;;;1.83;0.90;;;20.20;99.90;;;;;;4953660;29;20453;-71
2022/05/31 07:17:09;;;;;;;0.80;0.60;;;20.40;99.90;;;;;;4968150;28;20512;-70
2022/05/31 07:19:35;;;;;;;0.80;0.73;;;20.30;99.90;;;;;;4953754;29;20213;-71
2022/05/31 07:22:01;;;;;;;0.80;0.70;;;20.20;99.90;;;;;;4953627;29;20410;-71
2022/05/31 07:24:27;;;;;;;0.80;0.60;;;19.90;99.90;;;;;;4952507;28;20186;-70
2022/05/31 07:26:53;;;;;;;0.90;0.60;;;19.70;99.90;;;;;;4953261;28;20421;-71
2022/05/31 07:29:19;;;;;;;1.00;0.90;;;19.40;99.90;;;;;;4953537;29;20414;-70
2022/05/31 07:31:45;;;;;;;0.90;0.67;;;19.20;99.90;;;;;;4952320;28;20174;-71
2022/05/31 07:34:12;;;;;;;1.67;1.27;;;18.90;99.90;;;;;;4953561;29;20458;-71
2022/05/31 07:36:41;;;;;;;1.07;0.83;;;18.70;99.90;;;;;;4953392;28;20170;-70
2022/05/31 07:39:15;;;;;;;0.80;0.50;;;18.50;99.90;;;;;;4953716;29;20406;-71
2022/05/31 07:41:41;;;;;;;1.00;0.80;;;18.30;99.90;;;;;;4955050;28;20935;-70
2022/05/31 07:44:08;;;;;;;0.80;0.60;;;18.10;99.90;;;;;;4956024;29;20421;-71
2022/05/31 07:46:34;;;;;;;1.10;0.70;;;18.00;99.90;;;;;;4956911;29;20437;-71
2022/05/31 07:49:00;;;;;;;1.00;0.90;;;17.80;99.90;;;;;;4957056;29;20418;-71
2022/05/31 07:51:27;;;;;;;0.90;0.80;;;17.80;99.90;;;;;;4955749;29;20194;-71
2022/05/31 07:53:53;;;;;;;1.00;0.70;;;17.80;99.90;;;;;;4956843;28;20222;-71
2022/05/31 07:56:19;;;;;;;2.30;0.70;;;17.80;99.90;;;;;;4955546;29;20756;-71
2022/05/31 07:58:46;;;;;;;0.80;0.60;;;17.90;99.90;;;;;;4956650;29;20872;-71
2022/05/31 08:01:16;;;;;;;1.07;0.97;;;18.00;99.90;;;;;;4956864;28;20958;-70
2022/05/31 08:03:42;;;;;;;1.87;0.70;;;18.10;99.90;;;;;;4956797;29;20410;-71
2022/05/31 08:06:16;;;;;;;2.43;1.00;;;18.10;99.90;;;;;;4971606;28;20425;-71
2022/05/31 08:08:43;;;;;;;0.80;0.50;;;18.10;99.90;;;;;;4956370;28;20420;-71
2022/05/31 08:11:22;;;;;;;1.40;0.90;;;18.10;99.90;;;;;;4956655;29;20430;-71
2022/05/31 08:13:49;;;;;;;1.47;0.97;;;18.00;99.90;;;;;;4956661;29;20496;-70
2022/05/31 08:16:17;;;;;;;1.20;0.90;;;17.90;99.90;;;;;;4956576;28;20410;-71
2022/05/31 08:18:44;;;;;;;4.63;3.30;;;17.80;99.90;;;;;;4956367;28;20410;-70
2022/05/31 08:21:13;;;;;;;1.00;0.67;;;17.70;99.90;;;;;;4956424;29;20429;-70
2022/05/31 08:23:39;;;;;;;0.80;0.60;;;17.60;99.90;;;;;;4971128;28;20422;-70
2022/05/31 08:26:05;;;;;;;1.20;0.80;;;17.40;99.90;;;;;;4956308;29;20414;-70
2022/05/31 08:28:32;;;;;;;1.57;0.70;;;17.30;99.90;;;;;;4956265;28;20414;-70
2022/05/31 08:31:02;;;;;;;1.27;0.93;;;17.20;99.90;;;;;;4956290;29;20449;-70
2022/05/31 08:33:28;;;;;;;0.80;0.70;;;17.10;99.90;;;;;;4956263;29;20504;-70
2022/05/31 08:35:54;;;;;;;0.90;0.80;;;16.90;99.90;;;;;;4956203;29;20410;-71
2022/05/31 08:38:20;;;;;;;0.80;0.60;;;16.80;99.90;;;;;;4956015;29;20171;-70
2022/05/31 08:41:12;;;;;;;1.20;0.90;;;16.80;99.90;;;;;;4956103;28;20433;-70
2022/05/31 08:43:46;;;;;;;0.80;0.70;;;16.70;99.90;;;;;;4956227;29;20911;-70
2022/05/31 08:46:30;;;;;;;1.00;0.70;;;16.60;99.90;;;;;;4954698;29;20504;-70
2022/05/31 08:49:23;;;;;;;0.90;0.70;;;16.50;99.90;;;;;;4955915;28;20464;-70
2022/05/31 08:52:03;;;;;;;1.40;1.13;;;16.50;99.90;;;;;;4953739;28;20874;-71
2022/05/31 08:57:46;;;;;;;0.90;0.67;;;16.40;99.90;;;;;;4955733;29;20401;-70
2022/05/31 09:00:33;;;;;;;0.80;0.60;;;16.40;99.90;;;;;;4955734;29;20422;-70
2022/05/31 09:03:08;;;;;;;1.00;0.90;;;16.40;99.90;;;;;;4955849;28;20406;-70
2022/05/31 09:05:46;;;;;;;0.80;0.50;;;16.40;99.90;;;;;;4955817;29;20410;-71
2022/05/31 09:08:20;;;;;;;1.30;1.03;;;16.40;99.90;;;;;;4955519;29;20409;-70
2022/05/31 09:10:55;;;;;;;0.80;0.50;;;16.40;99.90;;;;;;4954418;29;20445;-70
2022/05/31 09:13:36;;;;;;;0.80;0.60;;;16.50;99.90;;;;;;4955554;29;20413;-71
2022/05/31 09:16:23;;;;;;;1.00;0.73;;;16.70;99.90;;;;;;4954384;29;20421;-71
2022/05/31 09:18:57;;;;;;;1.00;0.80;;;16.90;99.90;;;;;;4955342;28;20420;-71
2022/05/31 09:21:26;;;;;;;0.80;0.60;;;17.20;99.90;;;;;;4955373;28;20417;-72
2022/05/31 09:23:52;;;;;;;0.80;0.60;;;17.50;99.90;;;;;;4954415;29;20548;-72
2022/05/31 09:26:41;;;;;;;1.00;0.80;;;17.90;99.90;;;;;;4970196;28;20664;-72
2022/05/31 09:29:26;;;;;;;0.80;0.57;;;18.70;99.90;;;;;;4955387;29;20505;-72
2022/05/31 09:32:04;;;;;;;0.90;0.70;;;20.90;99.90;;;;;;4955234;29;20417;-72
2022/05/31 09:34:58;;;;;;;1.13;1.03;;;24.60;99.90;;;;;;4953801;28;20541;-71
2022/05/31 09:37:35;;;;;;;0.87;0.67;;;28.20;99.90;;;;;;4954960;29;20402;-73
2022/05/31 09:40:19;;;;;;;1.00;0.90;;;31.20;97.70;;;;;;4955077;28;20935;-72
2022/05/31 09:43:08;;;;;;;1.00;0.87;;;33.10;86.70;;;;;;4955065;28;20409;-73
2022/05/31 09:45:38;;;;;;;1.20;1.10;;;33.80;73.00;;;;;;4969799;28;20418;-70
2022/05/31 09:48:05;;;;;;;1.80;1.37;;;33.70;63.30;;;;;;4954721;29;20413;-70
2022/05/31 09:50:31;;;;;;;1.60;1.50;;;33.40;56.40;;;;;;4954818;29;20417;-69
2022/05/31 09:52:57;;;;;;;1.07;0.87;;;33.00;54.30;;;;;;4954703;29;20406;-71
2022/05/31 09:58:30;;;;;;;1.47;1.10;;;31.80;53.00;;;;;;4954830;29;20176;-71
2022/05/31 10:01:04;;;;;;;2.23;1.80;;;31.10;53.10;;;;;;4954630;29;20510;-72
2022/05/31 10:03:46;;;;;;;1.13;0.90;;;30.70;53.30;;;;;;4952699;28;20418;-72
2022/05/31 10:06:25;;;;;;;1.30;1.20;;;30.40;52.40;;;;;;4954663;29;20505;-72
2022/05/31 10:08:52;;;;;;;0.90;0.70;;;30.20;52.90;;;;;;4953074;28;20645;-71
2022/05/31 10:11:23;;;;;;;0.90;0.80;;;30.20;53.40;;;;;;4954478;29;20430;-71
2022/05/31 10:14:20;;;;;;;0.90;0.80;;;30.20;53.60;;;;;;4953338;29;20975;-72
2022/05/31 10:16:47;;;;;;;1.00;0.70;;;30.00;53.40;;;;;;4954180;29;20426;-71
2022/05/31 10:19:30;;;;;;;0.90;0.80;;;29.90;53.20;;;;;;4954325;29;20420;-71
2022/05/31 10:22:13;;;;;;;1.23;0.80;;;29.70;53.30;;;;;;4954251;28;20449;-71
2022/05/31 10:24:38;;;;;;;0.93;0.70;;;29.60;53.40;;;;;;4969104;28;20417;-71
2022/05/31 10:27:10;;;;;;;1.13;1.00;;;29.50;53.20;;;;;;4952760;28;20967;-71
2022/05/31 10:29:53;;;;;;;0.90;0.70;;;29.30;53.00;;;;;;4952989;29;20663;-70
2022/05/31 10:32:27;;;;;;;0.90;0.70;;;29.00;52.90;;;;;;4954225;28;20414;-72
2022/05/31 10:35:26;;;;;;;0.90;0.70;;;28.70;53.10;;;;;;4952734;29;20462;-72
2022/05/31 10:37:59;;;;;;;0.90;0.60;;;28.50;53.40;;;;;;4953784;28;20410;-72
2022/05/31 10:40:54;;;;;;;1.10;0.70;;;29.50;55.00;;;;;;4954068;28;20421;-72
2022/05/31 10:43:43;;;;;;;0.90;0.70;;;32.90;55.70;;;;;;4953700;29;20425;-71
2022/05/31 10:46:20;;;;;;;1.63;1.10;;;36.70;53.90;;;;;;4954171;29;20406;-72
2022/05/31 10:48:51;;;;;;;0.90;0.80;;;39.80;50.70;;;;;;4953817;29;20806;-70
2022/05/31 10:51:32;;;;;;;1.20;1.00;;;41.20;47.60;;;;;;4952484;29;20437;-72
2022/05/31 10:53:58;;;;;;;1.03;0.93;;;42.20;43.80;;;;;;4953912;28;20460;-70
2022/05/31 10:56:38;;;;;;;1.10;1.00;;;43.70;42.20;;;;;;4953946;29;20410;-71
2022/05/31 10:59:10;;;;;;;1.17;1.07;;;45.50;40.50;;;;;;4953784;29;20173;-71
2022/05/31 11:02:25;;;;;;;1.33;1.23;;;47.20;38.60;;;;;;4953767;29;20433;-72
2022/05/31 11:05:09;;;;;;;1.40;1.30;;;49.30;37.10;;;;;;4953835;28;20416;-71
2022/05/31 11:13:44;;;;;;;1.50;1.40;;;53.80;32.50;;;;;;4953944;29;20970;-72
2022/05/31 11:16:26;;;;;;;1.60;1.50;;;55.00;30.30;;;;;;4955179;28;20825;-72
2022/05/31 11:19:20;;;;;;;1.87;1.77;;;55.70;29.40;;;;;;4957586;29;20447;-72
2022/05/31 11:22:04;;;;;;;1.70;1.60;;;56.60;28.90;;;;;;4957997;29;20774;-72
2022/05/31 11:24:59;;;;;;;2.00;1.90;;;57.00;28.10;;;;;;4957593;29;20481;-72
2022/05/31 11:27:55;;;;;;;1.80;1.70;;;56.40;27.40;;;;;;4956142;28;20400;-72
2022/05/31 11:31:07;;;;;;;2.00;1.90;;;56.20;26.70;;;;;;4957561;28;21027;-72
2022/05/31 11:34:11;;;;;;;1.80;1.70;;;56.00;24.80;;;;;;4956904;29;21205;-72
2022/05/31 11:36:48;;;;;;;1.70;1.60;;;56.30;23.60;;;;;;4956953;29;20414;-72
2022/05/31 11:39:53;;;;;;;1.80;1.70;;;56.70;23.70;;;;;;4957299;29;20441;-73
2022/05/31 11:42:35;;;;;;;1.90;1.80;;;56.70;23.80;;;;;;4957187;28;20405;-72
2022/05/31 11:45:03;;;;;;;2.10;2.00;;;57.00;24.00;;;;;;4957274;28;20462;-72
2022/05/31 11:47:50;;;;;;;2.00;1.90;;;57.30;23.90;;;;;;4955519;29;20467;-73
2022/05/31 11:50:25;;;;;;;2.00;1.90;;;56.00;22.50;;;;;;4957041;28;20508;-72
2022/05/31 11:53:04;;;;;;;1.50;1.40;;;53.90;22.50;;;;;;4957162;29;20393;-72
2022/05/31 11:55:45;;;;;;;1.50;1.40;;;51.80;22.70;;;;;;4957102;28;20744;-71
2022/05/31 11:58:26;;;;;;;1.40;1.30;;;49.30;23.20;;;;;;4956865;29;20414;-71
2022/05/31 12:01:01;;;;;;;1.30;1.20;;;47.50;24.00;;;;;;4957020;29;20408;-72
2022/05/31 12:03:34;;;;;;;1.30;1.20;;;47.30;24.80;;;;;;4956830;29;20878;-72
2022/05/31 12:06:10;;;;;;;1.40;1.30;;;47.60;25.00;;;;;;4956860;29;20406;-72
2022/05/31 12:09:01;;;;;;;1.57;1.40;;;48.50;25.20;;;;;;4956628;28;20376;-71
2022/05/31 12:11:31;;;;;;;1.57;1.47;;;49.90;25.00;;;;;;4956435;28;20420;-72
2022/05/31 12:13:58;;;;;;;1.90;1.80;;;50.10;24.70;;;;;;4955533;29;20392;-71
2022/05/31 12:16:24;;;;;;;1.60;1.40;;;49.00;24.50;;;;;;4955384;29;20406;-71
2022/05/31 12:19:17;;;;;;;1.87;1.77;;;47.50;24.60;;;;;;4956338;28;20407;-71
2022/05/31 12:22:19;;;;;;;1.20;1.10;;;45.80;24.70;;;;;;4956626;29;20890;-71
2022/05/31 12:24:53;;;;;;;1.00;0.90;;;44.00;24.90;;;;;;4955672;28;20527;-70
2022/05/31 12:27:36;;;;;;;1.20;1.10;;;42.20;25.30;;;;;;4954223;28;20422;-70
2022/05/31 12:30:26;;;;;;;1.10;1.00;;;40.70;25.70;;;;;;4956391;29;20484;-71
2022/05/31 12:32:55;;;;;;;1.20;1.10;;;39.30;26.30;;;;;;4956166;28;20419;-71
2022/05/31 12:35:29;;;;;;;1.07;0.97;;;38.10;26.90;;;;;;4956387;29;20421;-70
2022/05/31 12:38:06;;;;;;;1.00;0.80;;;37.10;27.40;;;;;;4956019;29;20414;-69
2022/05/31 12:40:39;;;;;;;0.90;0.80;;;36.40;27.70;;;;;;4956304;29;20440;-70
2022/05/31 12:43:06;;;;;;;0.90;0.80;;;36.00;27.90;;;;;;4956319;28;20488;-70
2022/05/31 12:45:34;;;;;;;1.10;1.00;;;35.80;28.10;;;;;;4954757;29;20457;-70
2022/05/31 12:48:12;;;;;;;1.70;1.27;;;35.30;28.10;;;;;;4955922;29;20406;-70
2022/05/31 12:50:56;;;;;;;1.00;0.90;;;34.70;28.30;;;;;;4954705;29;20441;-70
2022/05/31 12:53:35;;;;;;;0.90;0.80;;;33.90;28.70;;;;;;4953053;29;20788;-69
2022/05/31 12:56:01;;;;;;;2.17;1.10;;;33.20;29.20;;;;;;4954073;28;20457;-71
2022/05/31 12:58:35;;;;;;;2.80;1.30;;;32.30;29.30;;;;;;4955554;29;20954;-71
2022/05/31 13:01:13;;;;;;;1.20;0.90;;;31.50;29.40;;;;;;4955307;28;20273;-70
2022/05/31 13:03:51;;;;;;;1.10;0.90;;;30.70;29.10;;;;;;4955662;28;20442;-70
2022/05/31 13:06:33;;;;;;;1.20;1.10;;;30.00;29.30;;;;;;4954696;28;20405;-70
2022/05/31 13:09:22;;;;;;;1.00;0.80;;;29.50;29.80;;;;;;4953498;29;21039;-71
2022/05/31 13:20:44;;;;;;;1.10;0.70;;;28.90;30.70;;;;;;4955748;29;20425;-71
2022/05/31 13:23:10;;;;;;;1.20;1.07;;;29.00;30.50;;;;;;4955291;29;20792;-70
2022/05/31 13:25:50;;;;;;;0.90;0.73;;;29.30;30.90;;;;;;4953949;28;20497;-70
2022/05/31 13:28:33;;;;;;;1.10;0.90;;;29.40;30.50;;;;;;4959393;28;20202;-70
2022/05/31 13:31:09;;;;;;;1.10;1.00;;;29.60;29.80;;;;;;4955306;28;20426;-71
2022/05/31 13:33:35;;;;;;;1.20;0.90;;;29.80;29.60;;;;;;4955217;28;20412;-71
2022/05/31 13:36:22;;;;;;;0.90;0.70;;;30.00;29.70;;;;;;4954516;28;20433;-70
2022/05/31 13:38:52;;;;;;;1.13;1.00;;;30.10;29.20;;;;;;4947874;28;20187;-71
2022/05/31 13:41:20;;;;;;;1.70;1.60;;;30.00;28.90;;;;;;4954563;28;20549;-71